createdAt,value
2018-02-20T00:00:05.118Z,20.63
2018-02-20T00:05:34.068Z,22.53
2018-02-20T00:11:02.229Z,25.40
2018-02-20T00:16:30.393Z,25.10
2018-02-20T00:21:59.348Z,23.00
2018-02-20T00:27:27.501Z,23.93
2018-02-20T00:32:56.418Z,25.57
2018-02-20T00:38:24.574Z,25.80
2018-02-20T00:43:52.718Z,23.67
2018-02-20T00:49:21.655Z,28.43
2018-02-20T00:54:50.561Z,27.40
2018-02-20T01:00:18.714Z,25.83
2018-02-20T01:05:47.621Z,26.17
2018-02-20T01:11:15.772Z,26.43
2018-02-20T01:16:44.708Z,27.47
2018-02-20T01:22:13.853Z,27.60
2018-02-20T01:27:42.769Z,27.10
2018-02-20T01:33:10.904Z,27.60
2018-02-20T01:38:39.064Z,29.63
2018-02-20T01:44:07.215Z,25.50
2018-02-20T01:49:35.367Z,26.60
2018-02-20T01:55:04.291Z,28.00
2018-02-20T02:00:32.485Z,27.40
2018-02-20T02:06:00.682Z,27.67
2018-02-20T02:11:28.845Z,26.27
2018-02-20T02:16:56.982Z,27.40
2018-02-20T02:22:25.130Z,28.43
2018-02-20T02:27:53.268Z,26.30
2018-02-20T02:33:21.426Z,25.17
2018-02-20T02:38:49.591Z,29.90
2018-02-20T02:44:17.728Z,25.43
2018-02-20T02:49:45.874Z,27.40
2018-02-20T02:55:14.045Z,25.30
2018-02-20T03:00:42.196Z,25.07
2018-02-20T03:06:10.394Z,25.70
2018-02-20T03:11:38.555Z,25.67
2018-02-20T03:17:06.706Z,26.93
2018-02-20T03:22:35.658Z,26.37
2018-02-20T03:28:04.599Z,25.27
2018-02-20T03:33:33.526Z,23.57
2018-02-20T03:39:02.452Z,24.33
2018-02-20T03:44:30.634Z,26.50
2018-02-20T03:49:58.797Z,23.20
2018-02-20T03:55:27.745Z,25.10
2018-02-20T04:00:56.932Z,26.63
2018-02-20T04:06:25.099Z,23.97
2018-02-20T04:11:54.032Z,25.13
2018-02-20T04:17:22.951Z,24.63
2018-02-20T04:22:51.104Z,23.93
2018-02-20T04:28:20.029Z,26.10
2018-02-20T04:33:48.956Z,25.20
2018-02-20T04:39:17.164Z,27.50
2018-02-20T04:44:45.317Z,27.87
2018-02-20T04:50:14.234Z,25.30
2018-02-20T04:55:42.398Z,22.63
2018-02-20T05:01:10.530Z,26.00
2018-02-20T05:06:38.702Z,27.50
2018-02-20T05:12:06.845Z,28.80
2018-02-20T05:17:35.025Z,26.80
2018-02-20T05:23:03.421Z,26.17
2018-02-20T05:28:31.607Z,26.07
2018-02-20T05:33:59.812Z,29.77
2018-02-20T05:39:29.242Z,26.30
2018-02-20T05:44:57.425Z,28.10
2018-02-20T05:50:25.570Z,25.30
2018-02-20T05:55:53.807Z,24.53
2018-02-20T06:01:23.695Z,23.73
2018-02-20T06:06:52.598Z,23.37
2018-02-20T06:12:20.758Z,22.80
2018-02-20T06:17:49.677Z,24.47
2018-02-20T06:23:17.841Z,25.87
2018-02-20T06:28:45.991Z,26.97
2018-02-20T06:34:14.143Z,25.30
2018-02-20T06:39:43.117Z,25.70
2018-02-20T06:45:11.272Z,25.27
2018-02-20T06:50:39.446Z,26.00
2018-02-20T06:56:08.360Z,27.30
2018-02-20T07:01:36.499Z,27.90
2018-02-20T07:07:04.673Z,26.70
2018-02-20T07:12:32.932Z,26.33
2018-02-20T07:18:01.869Z,28.43
2018-02-20T07:23:30.890Z,28.47
2018-02-20T07:28:59.877Z,27.93
2018-02-20T07:34:28.110Z,27.27
2018-02-20T07:39:56.356Z,27.47
2018-02-20T07:45:24.506Z,29.37
2018-02-20T07:50:53.442Z,27.93
2018-02-20T07:56:22.360Z,26.00
2018-02-20T08:01:50.521Z,25.97
2018-02-20T08:07:18.677Z,25.77
2018-02-20T08:12:46.823Z,24.97
2018-02-20T08:18:14.974Z,22.17
2018-02-20T08:23:43.127Z,21.53
2018-02-20T08:29:11.304Z,20.30
2018-02-20T08:34:39.481Z,17.33
2018-02-20T08:40:07.654Z,18.93
2018-02-20T08:45:35.797Z,22.57
2018-02-20T08:51:03.954Z,20.27
2018-02-20T08:56:32.131Z,20.20
2018-02-20T09:02:00.264Z,20.73
2018-02-20T09:07:29.196Z,21.27
2018-02-20T09:12:57.339Z,19.30
2018-02-20T09:18:26.256Z,21.70
2018-02-20T09:23:54.399Z,22.77
2018-02-20T09:29:22.575Z,22.33
2018-02-20T09:34:50.713Z,24.50
2018-02-20T09:40:18.906Z,26.43
2018-02-20T09:45:47.824Z,25.23
2018-02-20T09:51:16.760Z,24.77
2018-02-20T09:56:44.904Z,18.53
2018-02-20T10:02:13.052Z,16.57
2018-02-20T10:07:41.186Z,15.73
2018-02-20T10:13:09.348Z,18.20
2018-02-20T10:18:38.244Z,21.13
2018-02-20T10:24:06.421Z,19.50
2018-02-20T10:29:34.604Z,21.23
2018-02-20T10:35:02.766Z,19.73
2018-02-20T10:40:31.692Z,19.00
2018-02-20T10:45:59.876Z,18.00
2018-02-20T10:51:28.017Z,18.60
2018-02-20T10:56:56.982Z,17.40
2018-02-20T11:02:25.147Z,17.30
2018-02-20T11:07:53.314Z,16.97
2018-02-20T11:13:21.522Z,18.10
2018-02-20T11:18:49.637Z,14.37
2018-02-20T11:24:18.543Z,17.93
2018-02-20T11:29:46.688Z,18.20
2018-02-20T11:35:15.598Z,20.07
2018-02-20T11:40:43.745Z,18.77
2018-02-20T11:46:11.877Z,17.70
2018-02-20T11:51:40.784Z,19.37
2018-02-20T11:57:08.994Z,17.30
2018-02-20T12:02:37.121Z,17.67
2018-02-20T12:08:05.278Z,18.47
2018-02-20T12:13:34.214Z,18.27
2018-02-20T12:19:03.123Z,15.90
2018-02-20T12:24:31.269Z,17.80
2018-02-20T12:29:59.431Z,19.10
2018-02-20T12:35:27.576Z,9.90
2018-02-20T12:40:56.586Z,15.20
2018-02-20T12:46:25.653Z,13.70
2018-02-20T12:51:53.758Z,17.30
2018-02-20T12:57:21.932Z,18.47
2018-02-20T13:02:50.132Z,15.33
2018-02-20T13:08:18.284Z,13.80
2018-02-20T13:13:46.419Z,12.00
2018-02-20T13:19:14.541Z,16.90
2018-02-20T13:24:42.674Z,20.50
2018-02-20T13:30:10.807Z,19.10
2018-02-20T13:35:38.990Z,17.13
2018-02-20T13:41:07.124Z,17.10
2018-02-20T13:46:35.289Z,16.70
2018-02-20T13:52:04.226Z,11.50
2018-02-20T13:57:32.377Z,13.77
2018-02-20T14:03:00.741Z,11.60
2018-02-20T14:08:28.897Z,13.17
2018-02-20T14:13:57.928Z,12.80
2018-02-20T14:19:26.060Z,11.40
2018-02-20T14:24:55.068Z,13.43
2018-02-20T14:30:23.214Z,12.17
2018-02-20T14:35:51.432Z,12.53
2018-02-20T14:41:20.330Z,13.43
2018-02-20T14:46:48.618Z,11.40
2018-02-20T14:52:16.770Z,13.03
2018-02-20T14:57:45.218Z,12.53
2018-02-20T15:03:14.499Z,12.77
2018-02-20T15:08:43.408Z,13.17
2018-02-20T15:14:11.553Z,14.07
2018-02-20T15:19:41.406Z,16.57
2018-02-20T15:25:10.315Z,15.80
2018-02-20T15:30:38.491Z,12.93
2018-02-20T15:36:06.842Z,10.77
2018-02-20T15:41:35.201Z,11.47
2018-02-20T15:47:03.367Z,11.00
2018-02-20T15:52:31.527Z,13.33
2018-02-20T15:57:59.700Z,14.27
2018-02-20T16:03:27.948Z,13.93
2018-02-20T16:08:56.121Z,15.67
2018-02-20T16:14:25.071Z,16.33
2018-02-20T16:19:53.201Z,13.93
2018-02-20T16:25:21.351Z,14.13
2018-02-20T16:30:49.504Z,17.50
2018-02-20T16:36:17.651Z,19.00
2018-02-20T16:41:45.818Z,14.70
2018-02-20T16:47:13.993Z,16.13
2018-02-20T16:52:42.925Z,12.80
2018-02-20T16:58:11.988Z,11.50
2018-02-20T17:03:40.153Z,13.67
2018-02-20T17:09:08.314Z,15.17
2018-02-20T17:14:36.454Z,18.33
2018-02-20T17:20:04.616Z,17.10
2018-02-20T17:25:32.778Z,19.17
2018-02-20T17:31:00.934Z,19.77
2018-02-20T17:36:29.139Z,21.00
2018-02-20T17:41:57.292Z,20.40
2018-02-20T17:47:25.443Z,23.07
2018-02-20T17:52:53.590Z,24.07
2018-02-20T17:58:21.752Z,25.23
2018-02-20T18:03:49.910Z,25.27
2018-02-20T18:09:18.050Z,22.47
2018-02-20T18:14:46.211Z,26.23
2018-02-20T18:20:14.354Z,27.93
2018-02-20T18:25:43.262Z,27.20
2018-02-20T18:31:11.428Z,28.40
2018-02-20T18:36:39.582Z,29.47
2018-02-20T18:42:07.743Z,28.80
2018-02-20T18:47:36.643Z,27.30
2018-02-20T18:53:05.565Z,29.60
2018-02-20T18:58:33.736Z,29.10
2018-02-20T19:04:02.675Z,30.77
2018-02-20T19:09:30.863Z,28.47
2018-02-20T19:14:59.839Z,28.07
2018-02-20T19:20:28.771Z,28.43
2018-02-20T19:25:57.769Z,30.30
2018-02-20T19:31:25.920Z,27.33
2018-02-20T19:36:54.063Z,29.00
2018-02-20T19:42:23.201Z,31.53
2018-02-20T19:47:52.146Z,41.37
2018-02-20T19:53:20.299Z,31.67
2018-02-20T19:58:48.465Z,28.47
2018-02-20T20:04:16.691Z,28.00
2018-02-20T20:09:45.611Z,28.40
2018-02-20T20:15:13.757Z,27.70
2018-02-20T20:20:47.937Z,30.27
2018-02-20T20:26:10.945Z,29.73
2018-02-20T20:31:39.118Z,28.37
2018-02-20T20:37:07.270Z,33.80
2018-02-20T20:42:36.139Z,30.67
2018-02-20T20:48:05.081Z,34.10
2018-02-20T20:53:33.327Z,28.13
2018-02-20T20:59:01.485Z,24.23
2018-02-20T21:04:29.684Z,28.03
2018-02-20T21:09:58.677Z,27.30
2018-02-20T21:15:26.897Z,28.13
2018-02-20T21:20:55.125Z,27.43
2018-02-20T21:26:23.391Z,27.97
2018-02-20T21:31:52.345Z,27.60
2018-02-20T21:37:20.521Z,26.77
2018-02-20T21:42:48.672Z,28.23
2018-02-20T21:48:17.593Z,26.97
2018-02-20T21:53:45.792Z,27.87
2018-02-20T21:59:13.958Z,27.60
2018-02-20T22:04:42.120Z,28.37
2018-02-20T22:10:10.272Z,27.73
2018-02-20T22:15:38.427Z,31.80
2018-02-20T22:21:06.704Z,33.23
2018-02-20T22:26:35.646Z,39.17
2018-02-20T22:32:03.925Z,32.20
2018-02-20T22:37:32.110Z,28.60
2018-02-20T22:43:01.038Z,28.80
2018-02-20T22:48:29.197Z,24.87
2018-02-20T22:53:57.350Z,26.60
2018-02-20T22:59:25.537Z,26.47
2018-02-20T23:04:53.927Z,27.57
2018-02-20T23:10:22.284Z,27.00
2018-02-20T23:15:50.428Z,25.50
2018-02-20T23:21:18.619Z,25.63
2018-02-20T23:26:46.793Z,26.87
2018-02-20T23:32:14.945Z,27.60
2018-02-20T23:37:43.859Z,29.27
2018-02-20T23:43:12.012Z,24.97
2018-02-20T23:48:40.175Z,26.43
2018-02-20T23:54:08.344Z,30.40
2018-02-20T23:59:37.264Z,27.30
